Topeka, KS (66611)

12:40 AM CST die 10o February, anno 2016 (GMT -0600)
Berkshire Golf Course | | Change Station
CLOSE
Current Station
Personal Weather Stations
Location: Topeka, KS
Elevation: 1020 ft
Nearby Weather Stations

Elev 1020 ft 39.00 °N, 95.73 °W | Updated 2 minutes ago

Serena
Serena
19.4 °F
Feels Like 19 °F
N
0.0
Ventus Variabilis Ventus from Zephyrus

Hodie
High -- | Low -- °F
--% Chance of Precip.
Yesterday
High -- | Low -- °F
Precip. -- in
Pressio 30.29 in
Visibilitas 10.0 milia passuum
Clouds Nubes Dispersae 5000 ft
Nubes Dispersae 6000 ft
Frigus Venti 19 °F
Frigus in quo Ros apparet 12 °F
Umor 72%
Rainfall 0.00 in
Snow Depth Not available.
7:20 AM 5:53 PM
Waxing Crescent, 4% visible
METAR KFOE 100553Z 25004KT 10SM SCT050 SCT060 M07/M12 A3025 RMK AO2 SLP257 T10671117 11022 21072 400171072 58009
Pressio 30.29 in
Visibilitas 10.0 milia passuum
Clouds Nubes Dispersae 5000 ft
Nubes Dispersae 6000 ft
Frigus Venti 19 °F
Frigus in quo Ros apparet 12 °F
Umor 72%
Rainfall 0.00 in
Snow Depth Not available.
7:20 AM 5:53 PM
Waxing Crescent, 4% visible
METAR KFOE 100553Z 25004KT 10SM SCT050 SCT060 M07/M12 A3025 RMK AO2 SLP257 T10671117 11022 21072 400171072 58009

10-Day Weather Forecast

Almanac

Astronomy

Feb. 10, 2016 Rise Set
Actual Time
Civil Twilight
Nautical Twilight
Astronomical Twilight
Moon
Length Of Visible Light
Length of Day
Tomorrow will be .
, % of the Moon is Illuminated

Today's Extremes

State Highs State Lows

Community

WunderPhotos

Upload Photos

1,891,826 photos uploaded!

WunderBlog® & News

Nearby

Air Quality

  Air Quality AQ Index Pollutant
Not available.

Snow Depth

Station Depth Elevation

Earthquake Activity

City Distance Mag. Time & Date
Minimum magnitude displayed is 2.5.

Coastal Water Temperatures

Locus Calor

Stations

Nearby Weather Stations

Station Location Temp Frigus Venti Frigus in quo Ros apparet Umor Ventus Precip. Elev Renovata Type
                   

Watches & Warnings

There are currently no watches in effect.